SSEC Globe Logo

Space Science and Engineering Center

Regional Terminal Forecasts

KMSN 271507Z 2715/2812 32011KT P6SM SCT030 TEMPO 2715/2717
     BKN026 FM271700 34012KT P6SM BKN035 FM280200 36006KT
     P6SM SCT090=
TAF AMD KMKE 271512Z 2715/2818 33013G20KT P6SM SCT030
     FM271700 33013G20KT P6SM BKN040 FM280300 35011G21KT
     P6SM SCT050 FM280900 34010G18KT P6SM SCT028=
TAF KGRB 271131Z 2712/2812 32009G17KT P6SM SCT025 FM271500
     35012G19KT P6SM BKN027 FM272100 35011G20KT P6SM OVC035
     FM280000 35009G18KT P6SM BKN027 FM280500 35006KT P6SM
     SCT027 FM280900 34007KT P6SM SCT035=
TAF AMD KAUW 271329Z 2713/2812 31008KT P6SM BKN018 TEMPO
     2713/2715 SCT018 FM271500 32009G18KT P6SM BKN018
     FM271900 35010G17KT P6SM BKN020 FM280100 36006KT P6SM
     SCT025=
KEAU 271120Z 2712/2812 VRB03KT P6SM SCT120 FM271400
     35009G16KT P6SM SKC FM280000 02006KT P6SM SKC FM280300
     00000KT P6SM SKC=
KLSE 271127Z 2712/2812 35003KT P6SM SCT080 FM271500 34010KT
     P6SM FEW040 FM280000 02004KT P6SM SKC=
KDBQ 271120Z 2712/2812 30005KT P6SM SCT100 FM271500
     34012G20KT P6SM FEW100 FM280000 01005KT P6SM SKC=
TAF TAF AMD KRFD 271456Z 2715/2812 33013G21KT P6SM SCT050
     FM280000 36009KT P6SM FEW050=
TAF AMD KORD 271456Z 2715/2818 32015G23KT P6SM SCT035
     FM272000 34013G19KT P6SM BKN050 FM280000 36014G22KT
     P6SM SCT035 FM280300 34012KT P6SM SCT030 FM281500
     01011KT P6SM SCT025=